Time;durP1;ratioP1;P1;durP2;ratioP2;P2;SDS_P1;SDS_P2;PMS_P1;PMS_P2;Temp;Humidity;BMP_temperature;BMP_pressure;BME280_temperature;BME280_humidity;BME280_pressure;Samples;Min_cycle;Max_cycle;Signal;HPM_P1;HPM_P2
2021/03/31 00:01:55;;;;;;;9.23;4.65;;;;;;;19.50;66.78;101902.00;5012282;28;20114;-59
2021/03/31 00:04:21;;;;;;;7.72;4.70;;;;;;;19.50;67.04;101904.66;5024711;28;20144;-60
2021/03/31 00:06:46;;;;;;;8.50;4.80;;;;;;;19.50;67.08;101894.03;5040659;28;20029;-60
2021/03/31 00:09:12;;;;;;;8.82;5.55;;;;;;;19.50;66.86;101899.34;5040990;28;20033;-60
2021/03/31 00:11:38;;;;;;;6.90;4.80;;;;;;;19.49;66.75;101895.84;5048359;28;20032;-60
2021/03/31 00:14:03;;;;;;;8.90;4.95;;;;;;;19.49;67.05;101898.53;5046656;28;20039;-59
2021/03/31 00:16:29;;;;;;;8.50;5.28;;;;;;;19.50;66.78;101897.53;5047680;28;20036;-60
2021/03/31 00:18:55;;;;;;;9.57;5.38;;;;;;;19.49;66.98;101893.19;5028544;28;20110;-59
2021/03/31 00:21:21;;;;;;;8.10;5.00;;;;;;;19.50;66.84;101899.34;5028689;28;20133;-61
2021/03/31 00:23:46;;;;;;;6.65;4.70;;;;;;;19.49;67.03;101897.69;5042616;28;20120;-59
2021/03/31 00:26:12;;;;;;;6.45;4.60;;;;;;;19.49;67.12;101903.84;5028428;28;20042;-62
2021/03/31 00:28:37;;;;;;;8.60;4.75;;;;;;;19.50;66.67;101897.53;5048117;28;20032;-60
2021/03/31 00:31:03;;;;;;;8.43;4.88;;;;;;;19.49;66.66;101892.38;5046435;28;20431;-60
2021/03/31 00:33:28;;;;;;;7.85;5.00;;;;;;;19.49;66.89;101901.19;5046844;28;20057;-60
2021/03/31 00:35:53;;;;;;;7.13;4.78;;;;;;;19.49;66.90;101895.84;5013247;28;20069;-60
2021/03/31 00:38:19;;;;;;;10.43;5.00;;;;;;;19.49;66.66;101900.34;5047079;28;20124;-59
2021/03/31 00:40:49;;;;;;;7.85;4.95;;;;;;;19.48;66.88;101894.19;5033042;28;20098;-60
2021/03/31 00:43:15;;;;;;;7.35;4.75;;;;;;;19.49;66.54;101895.84;5038266;28;20030;-59
2021/03/31 00:45:41;;;;;;;8.45;4.60;;;;;;;19.49;66.88;101898.53;5051069;28;20640;-60
2021/03/31 00:48:08;;;;;;;8.10;4.78;;;;;;;19.49;66.79;101895.03;5033355;28;20388;-59
2021/03/31 00:50:34;;;;;;;8.35;4.85;;;;;;;19.49;66.83;101898.53;5027782;28;20373;-60
2021/03/31 00:53:01;;;;;;;8.48;5.03;;;;;;;19.48;66.67;101896.03;5050107;28;20044;-60
2021/03/31 00:55:29;;;;;;;7.13;4.70;;;;;;;19.48;66.76;101886.22;5033129;28;20036;-59
2021/03/31 00:57:55;;;;;;;7.78;4.68;;;;;;;19.49;66.74;101884.38;5049471;28;20072;-59
2021/03/31 01:00:22;;;;;;;7.20;4.72;;;;;;;19.49;66.73;101884.38;5050681;28;20044;-60
2021/03/31 01:02:47;;;;;;;8.75;4.85;;;;;;;19.49;66.82;101881.72;5050779;28;20090;-60
2021/03/31 01:05:25;;;;;;;7.88;4.80;;;;;;;19.47;66.61;101886.38;5049517;28;20520;-60
2021/03/31 01:07:51;;;;;;;7.65;4.60;;;;;;;19.48;66.57;101880.91;5048539;28;20314;-60
2021/03/31 01:10:19;;;;;;;6.75;4.35;;;;;;;19.48;66.70;101875.56;5049650;28;20672;-59
2021/03/31 01:13:00;;;;;;;7.57;4.80;;;;;;;19.49;66.66;101877.22;5032491;28;20032;-59
2021/03/31 01:15:34;;;;;;;7.65;4.40;;;;;;;19.47;67.10;101887.22;5050259;28;20562;-59
2021/03/31 01:18:11;;;;;;;6.45;4.15;;;;;;;19.46;66.88;101880.25;5031517;28;20033;-60
2021/03/31 01:21:14;;;;;;;7.05;4.80;;;;;;;19.45;67.23;101868.75;5050517;28;20064;-60
2021/03/31 01:24:00;;;;;;;5.90;3.95;;;;;;;19.47;67.26;101878.41;5037188;28;20025;-59
2021/03/31 01:26:48;;;;;;;5.68;4.30;;;;;;;19.48;67.15;101880.06;5049787;28;20032;-59
2021/03/31 01:29:22;;;;;;;7.88;4.75;;;;;;;19.48;67.24;101880.06;5050440;28;20082;-59
2021/03/31 01:31:54;;;;;;;5.18;4.40;;;;;;;19.47;67.11;101876.56;5049742;28;20051;-59
2021/03/31 01:34:41;;;;;;;5.93;4.38;;;;;;;19.45;66.92;101875.91;5050566;28;20044;-60
2021/03/31 01:37:13;;;;;;;6.95;4.40;;;;;;;19.47;66.64;101868.59;5027243;28;20132;-60
2021/03/31 01:39:41;;;;;;;6.00;4.28;;;;;;;19.48;66.74;101867.59;5026674;28;20048;-59
2021/03/31 01:42:10;;;;;;;6.57;4.15;;;;;;;19.47;66.58;101859.78;5044537;28;20117;-59
2021/03/31 01:44:38;;;;;;;6.15;4.60;;;;;;;19.47;66.85;101855.28;5036182;28;20047;-60
2021/03/31 01:47:04;;;;;;;7.15;4.55;;;;;;;19.47;66.53;101857.94;5047393;28;20090;-62
2021/03/31 01:49:31;;;;;;;5.78;4.18;;;;;;;19.47;66.78;101849.97;5049015;28;20087;-59
2021/03/31 01:52:00;;;;;;;8.68;4.65;;;;;;;19.48;66.72;101850.78;5048757;28;20051;-59
2021/03/31 01:54:27;;;;;;;6.75;4.38;;;;;;;19.46;66.82;101856.28;5048691;28;20138;-59
2021/03/31 01:56:54;;;;;;;5.85;4.25;;;;;;;19.48;66.38;101848.13;5031935;28;20409;-59
2021/03/31 01:59:21;;;;;;;7.32;4.15;;;;;;;19.47;66.51;101849.97;5049533;28;20037;-59
2021/03/31 02:01:51;;;;;;;6.20;4.15;;;;;;;19.46;66.45;101850.97;5031279;28;20040;-60
2021/03/31 02:04:17;;;;;;;6.63;4.55;;;;;;;19.46;66.55;101848.31;5031161;28;20082;-59
2021/03/31 02:06:44;;;;;;;5.63;3.92;;;;;;;19.45;66.44;101847.47;5048719;28;20036;-59
2021/03/31 02:09:10;;;;;;;5.65;4.18;;;;;;;19.47;66.37;101841.97;5047248;28;20048;-62
2021/03/31 02:11:37;;;;;;;6.53;4.28;;;;;;;19.47;66.67;101841.16;5037079;28;20033;-60
2021/03/31 02:14:03;;;;;;;6.40;4.40;;;;;;;19.46;66.43;101837.66;5032507;28;20333;-59
2021/03/31 02:16:32;;;;;;;6.05;3.95;;;;;;;19.46;66.52;101832.34;5046982;28;20047;-61
2021/03/31 02:18:59;;;;;;;5.82;4.75;;;;;;;19.47;66.41;101822.53;5044888;28;20032;-59
2021/03/31 02:21:25;;;;;;;5.80;4.00;;;;;;;19.46;66.69;101829.69;5027560;28;20110;-59
2021/03/31 02:23:53;;;;;;;6.05;3.78;;;;;;;19.46;66.41;101813.72;5049002;28;20037;-59
2021/03/31 02:26:19;;;;;;;5.40;3.75;;;;;;;19.45;66.38;101814.72;5048316;28;20029;-59
2021/03/31 02:28:45;;;;;;;7.18;4.05;;;;;;;19.47;66.53;101814.53;5015038;28;20033;-59
2021/03/31 02:31:21;;;;;;;5.50;3.65;;;;;;;19.46;66.11;101811.06;5030887;28;20041;-60
2021/03/31 02:33:48;;;;;;;5.80;3.97;;;;;;;19.46;66.50;101813.72;5026940;28;20083;-60
2021/03/31 02:36:14;;;;;;;5.47;3.97;;;;;;;19.46;66.39;101813.72;5020293;28;20072;-59
2021/03/31 02:38:42;;;;;;;6.40;4.38;;;;;;;19.45;66.43;101810.22;5042728;28;20053;-59
2021/03/31 02:41:09;;;;;;;5.57;3.55;;;;;;;19.46;66.09;101803.06;5049244;28;20052;-61
2021/03/31 02:43:38;;;;;;;6.90;4.15;;;;;;;19.45;66.13;101799.56;5035816;28;20055;-60
2021/03/31 02:46:05;;;;;;;5.07;3.80;;;;;;;19.45;66.42;101796.91;5048669;28;20037;-60
2021/03/31 02:48:32;;;;;;;5.80;3.90;;;;;;;19.45;66.30;101799.56;5031385;28;20068;-61
2021/03/31 02:50:58;;;;;;;6.35;4.13;;;;;;;19.44;66.29;101787.28;5047563;28;20037;-59
2021/03/31 02:53:25;;;;;;;7.15;4.22;;;;;;;19.46;66.20;101784.44;5047335;28;20083;-59
2021/03/31 02:55:52;;;;;;;6.65;3.83;;;;;;;19.46;66.30;101787.09;5028227;28;20029;-60
2021/03/31 02:58:17;;;;;;;5.63;4.22;;;;;;;19.45;66.02;101788.09;5029693;28;20044;-60
2021/03/31 03:00:43;;;;;;;6.35;3.80;;;;;;;19.45;66.46;101793.44;5009544;28;20045;-59
2021/03/31 03:03:10;;;;;;;6.38;4.00;;;;;;;19.44;66.07;101786.44;5028161;28;20044;-60
2021/03/31 03:05:36;;;;;;;5.22;3.88;;;;;;;19.44;66.20;101794.44;5046644;28;20611;-59
2021/03/31 03:08:03;;;;;;;5.95;3.63;;;;;;;19.45;66.18;101801.41;5035051;28;20029;-60
2021/03/31 03:10:28;;;;;;;5.22;4.00;;;;;;;19.44;66.28;101797.09;5048210;28;20041;-60
2021/03/31 03:12:57;;;;;;;4.55;3.83;;;;;;;19.44;66.23;101795.25;5028689;28;20037;-60
2021/03/31 03:15:26;;;;;;;5.13;3.65;;;;;;;19.43;66.33;101790.94;5036972;28;20029;-59
2021/03/31 03:17:52;;;;;;;5.20;3.70;;;;;;;19.42;66.06;101791.94;5047165;28;20114;-59
2021/03/31 03:20:18;;;;;;;5.22;3.75;;;;;;;19.45;65.96;101793.44;5042812;28;20850;-59
2021/03/31 03:22:47;;;;;;;4.63;3.60;;;;;;;19.44;66.18;101797.09;5022660;28;20679;-60
2021/03/31 03:25:14;;;;;;;5.03;3.67;;;;;;;19.44;66.08;101797.09;5038138;28;20021;-59
2021/03/31 03:27:45;;;;;;;4.57;3.72;;;;;;;19.42;65.94;101801.75;5023183;28;20106;-60
2021/03/31 03:30:14;;;;;;;6.35;3.78;;;;;;;19.44;65.89;101805.06;5022986;28;20089;-59
2021/03/31 03:32:42;;;;;;;4.65;3.60;;;;;;;19.44;66.08;101805.06;5046070;28;20036;-60
2021/03/31 03:35:13;;;;;;;4.90;3.70;;;;;;;19.43;66.12;101801.59;5026837;28;20132;-61
2021/03/31 03:37:40;;;;;;;5.80;3.40;;;;;;;19.43;65.91;101796.25;5046636;28;20470;-60
2021/03/31 03:40:06;;;;;;;5.57;4.10;;;;;;;19.43;65.81;101796.25;5045965;28;20144;-59
2021/03/31 03:42:31;;;;;;;5.18;3.60;;;;;;;19.43;66.05;101798.91;5022814;28;20131;-62
2021/03/31 03:45:02;;;;;;;6.13;3.70;;;;;;;19.41;65.58;101798.28;5045808;28;20167;-59
2021/03/31 03:47:29;;;;;;;5.65;3.40;;;;;;;19.42;65.57;101804.41;5047612;28;20419;-62
2021/03/31 03:49:55;;;;;;;5.30;3.58;;;;;;;19.43;65.72;101804.25;5044144;28;20066;-59
2021/03/31 03:52:22;;;;;;;4.65;3.28;;;;;;;19.42;65.50;101802.59;5046831;28;20697;-59
2021/03/31 03:54:56;;;;;;;5.05;3.47;;;;;;;19.41;65.68;101805.41;5004024;28;20565;-60
2021/03/31 03:57:24;;;;;;;5.43;3.20;;;;;;;19.41;65.78;101800.09;5047895;28;20037;-60
2021/03/31 03:59:49;;;;;;;4.93;3.80;;;;;;;19.44;65.77;101805.06;5047094;28;20115;-60
2021/03/31 04:02:15;;;;;;;5.22;3.70;;;;;;;19.42;65.51;101796.44;5037798;28;20121;-59
2021/03/31 04:04:40;;;;;;;3.80;3.05;;;;;;;19.42;65.35;101799.09;5028043;28;20040;-59
2021/03/31 04:07:06;;;;;;;4.53;3.28;;;;;;;19.41;65.57;101792.13;5045422;28;20048;-60
2021/03/31 04:09:32;;;;;;;5.57;3.33;;;;;;;19.41;65.37;101787.63;5029647;28;20476;-60
2021/03/31 04:11:59;;;;;;;4.88;3.25;;;;;;;19.40;65.68;101787.75;5028678;28;20037;-60
2021/03/31 04:14:25;;;;;;;6.97;3.58;;;;;;;19.41;65.38;101787.63;5046113;28;20029;-59
2021/03/31 04:16:53;;;;;;;5.10;3.20;;;;;;;19.40;65.47;101780.63;5043865;28;20052;-59
2021/03/31 04:19:19;;;;;;;5.43;3.50;;;;;;;19.40;65.47;101782.44;5053066;28;20094;-60
2021/03/31 04:21:45;;;;;;;6.28;3.20;;;;;;;19.41;65.44;101784.13;5017844;28;20036;-60
2021/03/31 04:24:14;;;;;;;4.70;3.33;;;;;;;19.39;65.46;101783.44;5035133;28;20048;-59
2021/03/31 04:26:40;;;;;;;4.43;3.17;;;;;;;19.40;65.58;101785.94;5035544;28;20035;-60
2021/03/31 04:29:08;;;;;;;4.38;3.20;;;;;;;19.40;65.20;101780.63;5053605;28;20799;-59
2021/03/31 04:31:36;;;;;;;4.90;2.90;;;;;;;19.38;65.42;101771.97;5052442;28;20041;-59
2021/03/31 04:34:03;;;;;;;4.30;2.92;;;;;;;19.40;65.54;101779.78;5054514;28;20028;-59
2021/03/31 04:36:29;;;;;;;5.28;3.63;;;;;;;19.39;65.28;101772.81;5035055;28;20056;-59
2021/03/31 04:38:55;;;;;;;4.25;3.25;;;;;;;19.39;65.39;101772.81;5036980;28;20456;-60
2021/03/31 04:41:21;;;;;;;7.05;3.47;;;;;;;19.38;65.36;101777.31;5033808;28;20041;-60
2021/03/31 04:43:46;;;;;;;5.72;3.08;;;;;;;19.39;65.45;101775.47;5035250;28;20482;-60
2021/03/31 04:46:12;;;;;;;4.30;2.95;;;;;;;19.39;65.15;101770.97;5054002;28;20029;-60
2021/03/31 04:48:39;;;;;;;5.82;3.55;;;;;;;19.39;65.59;101772.81;5050940;28;20037;-60
2021/03/31 04:51:06;;;;;;;3.85;3.22;;;;;;;19.39;65.12;101772.81;5053801;28;20060;-60
2021/03/31 04:53:33;;;;;;;4.47;3.10;;;;;;;19.38;65.29;101771.16;5053203;28;20047;-59
2021/03/31 04:55:59;;;;;;;5.30;2.97;;;;;;;19.38;65.08;101776.47;5041200;28;20041;-60
2021/03/31 04:58:24;;;;;;;4.22;3.10;;;;;;;19.37;65.25;101770.31;5035341;28;20436;-60
2021/03/31 05:00:50;;;;;;;5.68;3.20;;;;;;;19.38;65.22;101785.28;5053616;28;20524;-59
2021/03/31 05:03:16;;;;;;;5.25;3.33;;;;;;;19.38;65.41;101784.44;5054288;28;20033;-60
2021/03/31 05:05:41;;;;;;;3.90;2.90;;;;;;;19.37;65.47;101772.16;5052885;28;20039;-60
2021/03/31 05:08:07;;;;;;;3.92;2.97;;;;;;;19.36;65.12;101766.00;5051991;28;20053;-59
2021/03/31 05:10:33;;;;;;;4.85;3.08;;;;;;;19.36;65.10;101766.00;5035826;28;20033;-59
2021/03/31 05:12:58;;;;;;;3.83;3.05;;;;;;;19.36;64.94;101762.50;5047767;28;20029;-59
2021/03/31 05:15:24;;;;;;;4.63;3.10;;;;;;;19.36;65.01;101762.50;5043918;28;20033;-59
2021/03/31 05:17:50;;;;;;;3.67;3.08;;;;;;;19.36;65.05;101759.84;5044765;28;20558;-59
2021/03/31 05:20:15;;;;;;;4.97;3.35;;;;;;;19.36;64.96;101762.50;5046921;28;20561;-59
2021/03/31 05:22:41;;;;;;;4.07;2.97;;;;;;;19.36;64.75;101751.88;5043653;28;20476;-60
2021/03/31 05:25:08;;;;;;;4.57;3.10;;;;;;;19.36;65.18;101750.03;5044029;28;20353;-60
2021/03/31 05:27:34;;;;;;;3.47;2.78;;;;;;;19.36;65.01;101759.84;5049338;28;20069;-61
2021/03/31 05:30:01;;;;;;;3.97;3.00;;;;;;;19.36;64.80;101755.38;5024395;28;20094;-59
2021/03/31 05:32:27;;;;;;;3.70;2.83;;;;;;;19.35;65.23;101756.38;5039922;28;20598;-59
2021/03/31 05:34:53;;;;;;;4.97;2.90;;;;;;;19.36;64.90;101757.19;5043274;28;20055;-59
2021/03/31 05:37:19;;;;;;;3.72;2.85;;;;;;;19.35;65.03;101759.03;5049294;28;20144;-60
2021/03/31 05:39:44;;;;;;;4.10;3.20;;;;;;;19.36;65.26;101759.84;5040049;28;20045;-60
2021/03/31 05:42:10;;;;;;;3.97;2.90;;;;;;;19.35;65.19;101763.50;5024659;28;20037;-59
2021/03/31 05:44:37;;;;;;;4.53;2.97;;;;;;;19.35;65.14;101764.34;5035515;28;20033;-60
2021/03/31 05:47:09;;;;;;;4.28;2.88;;;;;;;19.36;65.08;101768.66;5031302;28;20116;-60
2021/03/31 05:49:36;;;;;;;3.95;2.97;;;;;;;19.36;65.07;101767.84;5050122;28;20052;-60
2021/03/31 05:52:02;;;;;;;3.83;3.20;;;;;;;19.35;64.82;101775.00;5049827;28;20043;-59
2021/03/31 05:54:28;;;;;;;3.80;2.90;;;;;;;19.35;65.15;101772.31;5048000;28;20033;-60
2021/03/31 05:56:53;;;;;;;3.95;2.40;;;;;;;19.34;64.98;101770.66;5024831;28;20044;-60
2021/03/31 05:59:20;;;;;;;3.95;2.88;;;;;;;19.35;64.61;101774.16;5047674;28;20032;-59
2021/03/31 06:01:49;;;;;;;5.07;2.70;;;;;;;19.34;64.68;101772.50;5031933;28;20064;-59
2021/03/31 06:04:15;;;;;;;4.00;2.80;;;;;;;19.36;64.80;101770.50;5027494;28;20075;-59
2021/03/31 06:06:41;;;;;;;5.45;3.17;;;;;;;19.35;65.09;101768.84;5029461;28;20059;-60
2021/03/31 06:09:07;;;;;;;4.53;2.88;;;;;;;19.34;64.78;101776.00;5029114;28;20037;-59
2021/03/31 06:11:49;;;;;;;4.25;2.75;;;;;;;19.31;64.53;101773.69;5046940;28;20052;-60
2021/03/31 06:14:28;;;;;;;3.40;2.88;;;;;;;19.32;64.88;101766.53;5027401;28;20522;-59
2021/03/31 06:17:13;;;;;;;4.35;2.70;;;;;;;19.32;64.47;101769.19;5026513;28;20475;-59
2021/03/31 06:19:40;;;;;;;3.58;2.63;;;;;;;19.33;64.67;101763.69;5044962;28;20037;-59
2021/03/31 06:25:06;;;;;;;4.38;2.78;;;;;;;19.31;64.74;101768.34;5049307;28;20438;-60
2021/03/31 06:27:32;;;;;;;3.65;2.53;;;;;;;19.32;64.56;101774.50;5048636;28;20040;-60
2021/03/31 06:30:07;;;;;;;3.95;2.63;;;;;;;19.32;64.40;101779.81;5023216;28;20052;-59
2021/03/31 06:32:40;;;;;;;3.75;2.65;;;;;;;19.31;64.48;101779.00;5025031;28;20033;-59
2021/03/31 06:35:17;;;;;;;5.25;3.03;;;;;;;19.29;64.82;101775.69;5039248;28;20042;-60
2021/03/31 06:37:44;;;;;;;3.40;2.63;;;;;;;19.31;64.53;101775.50;5033593;28;20033;-59
2021/03/31 06:40:28;;;;;;;4.03;2.63;;;;;;;19.30;64.87;101773.84;5034819;28;20057;-62
2021/03/31 06:43:18;;;;;;;3.90;2.60;;;;;;;19.28;64.42;101774.03;5038671;28;20385;-62
2021/03/31 06:45:59;;;;;;;4.15;2.88;;;;;;;19.32;64.83;101777.16;5043985;28;20044;-60
2021/03/31 06:48:27;;;;;;;3.65;2.50;;;;;;;19.32;64.59;101779.81;5025247;28;20435;-60
2021/03/31 06:50:53;;;;;;;3.55;2.60;;;;;;;19.31;64.91;101780.84;5047155;28;20448;-59
2021/03/31 06:53:27;;;;;;;5.25;2.85;;;;;;;19.29;64.92;101791.66;5045006;28;20044;-60
2021/03/31 06:56:05;;;;;;;4.30;2.45;;;;;;;19.29;65.06;101799.63;5049095;28;20059;-60
2021/03/31 06:58:32;;;;;;;7.15;3.45;;;;;;;19.32;65.03;101796.63;5054151;28;20115;-59
2021/03/31 07:00:58;;;;;;;4.72;2.50;;;;;;;19.33;65.20;101797.44;5029755;28;20044;-59
2021/03/31 07:03:24;;;;;;;5.03;2.75;;;;;;;19.33;65.11;101794.78;5047441;28;20523;-59
2021/03/31 07:05:50;;;;;;;6.28;2.65;;;;;;;19.33;65.32;101792.13;5029566;28;20028;-59
2021/03/31 07:08:16;;;;;;;7.68;3.10;;;;;;;19.34;65.41;101793.78;5009382;28;20029;-59
2021/03/31 07:10:53;;;;;;;11.57;3.33;;;;;;;19.32;65.44;101785.16;5032814;28;20033;-59
2021/03/31 07:13:30;;;;;;;4.60;2.92;;;;;;;19.34;66.06;101796.44;5024938;28;20040;-59
2021/03/31 07:15:57;;;;;;;10.20;2.92;;;;;;;19.35;65.92;101790.13;5017242;28;20481;-61
2021/03/31 07:18:24;;;;;;;11.98;3.33;;;;;;;19.36;65.58;101786.47;5039316;28;20024;-62
2021/03/31 07:20:49;;;;;;;9.55;3.25;;;;;;;19.36;65.87;101787.28;5041096;28;20071;-63
2021/03/31 07:23:15;;;;;;;7.35;3.30;;;;;;;19.38;66.02;101795.09;5046473;28;20657;-62
2021/03/31 07:25:42;;;;;;;9.65;3.20;;;;;;;19.37;66.02;101796.94;5046640;28;20510;-62
2021/03/31 07:28:08;;;;;;;8.43;3.15;;;;;;;19.37;65.76;101799.59;5045012;28;20064;-63
2021/03/31 07:30:35;;;;;;;10.88;3.78;;;;;;;19.37;65.73;101806.75;5047887;28;20469;-62
2021/03/31 07:33:16;;;;;;;9.88;3.15;;;;;;;19.36;65.99;101791.78;5026899;28;20615;-62
2021/03/31 07:35:42;;;;;;;10.70;3.53;;;;;;;19.38;65.64;101801.25;5028719;28;20036;-63
2021/03/31 07:38:11;;;;;;;11.10;3.47;;;;;;;19.37;65.69;101790.78;5017589;28;20472;-63
2021/03/31 07:40:37;;;;;;;7.45;3.13;;;;;;;19.38;65.38;101787.13;5044746;28;20106;-62
2021/03/31 07:43:17;;;;;;;9.80;3.42;;;;;;;19.35;65.60;101800.75;5008352;28;20112;-64
2021/03/31 07:45:48;;;;;;;9.90;3.50;;;;;;;19.36;65.18;101797.94;5036667;28;20047;-62
2021/03/31 07:48:15;;;;;;;9.95;4.13;;;;;;;19.38;65.44;101800.41;5042698;28;20395;-64
2021/03/31 07:50:41;;;;;;;6.53;3.15;;;;;;;19.37;65.28;101799.59;5035840;28;20163;-62
2021/03/31 07:53:07;;;;;;;5.68;2.80;;;;;;;19.38;65.48;101806.56;5043999;28;20456;-62
2021/03/31 07:55:35;;;;;;;8.20;3.35;;;;;;;19.40;65.27;101806.38;5022807;28;20037;-63
2021/03/31 07:58:16;;;;;;;12.02;3.63;;;;;;;19.37;65.29;101804.09;5025010;28;20534;-62
2021/03/31 08:00:44;;;;;;;7.22;3.55;;;;;;;19.38;65.14;101803.91;5043701;28;20041;-62
2021/03/31 08:03:10;;;;;;;9.80;3.78;;;;;;;19.38;65.14;101803.91;5016418;28;20079;-63
2021/03/31 08:06:13;;;;;;;10.30;4.53;;;;;;;19.37;65.48;101801.41;5010511;28;20083;-63
2021/03/31 08:08:45;;;;;;;13.13;4.93;;;;;;;19.39;65.59;101796.75;5026804;28;20492;-63
2021/03/31 08:11:30;;;;;;;15.27;5.38;;;;;;;19.38;64.54;101793.25;5040410;28;20520;-63
2021/03/31 08:13:55;;;;;;;14.80;5.32;;;;;;;19.38;64.41;101798.59;5037243;28;20040;-63
2021/03/31 08:16:37;;;;;;;14.00;5.57;;;;;;;19.38;63.60;101795.09;5028807;28;20431;-64
2021/03/31 08:19:09;;;;;;;14.68;5.35;;;;;;;19.36;62.48;101803.25;5047404;28;20044;-63
2021/03/31 08:21:36;;;;;;;13.73;5.60;;;;;;;19.35;61.83;101803.44;5033586;28;20087;-64
2021/03/31 08:24:05;;;;;;;13.85;6.88;;;;;;;19.35;61.38;101806.09;5046283;28;20040;-63
2021/03/31 08:26:43;;;;;;;17.58;4.95;;;;;;;19.30;60.65;101800.47;5039788;28;20031;-63
2021/03/31 08:29:17;;;;;;;12.95;5.28;;;;;;;19.29;60.29;101790.81;5021788;28;20029;-63
2021/03/31 08:31:45;;;;;;;10.70;4.93;;;;;;;19.28;60.15;101784.66;5033602;28;20105;-63
2021/03/31 08:34:12;;;;;;;10.75;5.05;;;;;;;19.28;59.81;101784.66;5045570;28;20104;-63
2021/03/31 08:36:40;;;;;;;11.55;4.80;;;;;;;19.26;59.83;101780.53;5028301;28;20094;-63
2021/03/31 08:39:09;;;;;;;11.02;5.32;;;;;;;19.24;59.39;101793.97;5046818;28;20040;-63
2021/03/31 08:41:39;;;;;;;12.80;4.53;;;;;;;19.23;58.98;101796.81;5035993;28;20117;-63
2021/03/31 08:44:42;;;;;;;7.82;3.72;;;;;;;19.21;59.18;101798.81;5042423;28;20059;-64
2021/03/31 08:47:09;;;;;;;8.10;3.83;;;;;;;19.20;59.08;101799.81;5046993;28;20430;-63
2021/03/31 08:49:35;;;;;;;7.57;3.60;;;;;;;19.18;58.84;101799.16;5048176;28;20564;-63
2021/03/31 08:52:04;;;;;;;5.03;3.13;;;;;;;19.15;58.66;101792.34;5046158;28;20128;-64
2021/03/31 08:54:45;;;;;;;6.85;3.13;;;;;;;19.12;58.28;101801.50;5028995;28;20521;-64
2021/03/31 08:57:22;;;;;;;7.13;2.95;;;;;;;19.11;58.37;101802.50;5046485;28;20456;-63
2021/03/31 08:59:50;;;;;;;6.00;2.72;;;;;;;19.12;58.03;101795.34;5047418;28;20056;-63
2021/03/31 09:02:19;;;;;;;6.68;2.80;;;;;;;19.09;58.18;101801.84;5049988;28;20032;-63
2021/03/31 09:04:45;;;;;;;6.03;2.42;;;;;;;19.08;58.04;101794.84;5050997;28;20028;-63
2021/03/31 09:07:12;;;;;;;6.68;2.95;;;;;;;19.08;58.06;101791.34;5032076;28;20056;-63
2021/03/31 09:09:39;;;;;;;4.90;2.58;;;;;;;19.07;57.63;101787.84;5037618;28;20068;-64
2021/03/31 09:12:06;;;;;;;5.15;2.65;;;;;;;19.07;57.83;101793.19;5050429;28;20112;-64
2021/03/31 09:14:34;;;;;;;4.97;2.17;;;;;;;19.06;57.68;101790.69;5024596;28;20047;-64
2021/03/31 09:17:02;;;;;;;5.07;2.22;;;;;;;19.04;57.56;101787.38;5036905;28;20025;-64
2021/03/31 09:19:30;;;;;;;6.97;2.55;;;;;;;19.04;57.33;101793.53;5039310;28;20147;-63
2021/03/31 09:21:57;;;;;;;8.43;2.80;;;;;;;19.03;57.30;101797.19;5027477;28;20040;-64
2021/03/31 09:24:27;;;;;;;6.05;2.60;;;;;;;19.03;57.11;101797.19;5022161;28;20211;-63
2021/03/31 09:27:00;;;;;;;5.57;2.20;;;;;;;19.01;57.19;101796.53;5019139;28;20029;-64
2021/03/31 09:29:27;;;;;;;8.07;2.90;;;;;;;19.02;57.25;101795.53;5044215;28;20029;-63
2021/03/31 09:31:54;;;;;;;6.75;3.03;;;;;;;19.01;57.17;101804.50;5042035;28;20037;-63
2021/03/31 09:34:20;;;;;;;5.03;2.35;;;;;;;19.03;57.12;101799.00;5044561;28;20034;-64
2021/03/31 09:37:03;;;;;;;5.57;2.72;;;;;;;18.98;57.17;101791.56;5037956;28;20041;-63
2021/03/31 09:39:40;;;;;;;6.38;3.10;;;;;;;18.99;56.97;101797.69;5043009;28;20546;-63
2021/03/31 09:42:07;;;;;;;6.25;3.20;;;;;;;19.00;56.87;101797.53;5044192;28;20041;-63
2021/03/31 09:44:32;;;;;;;6.75;3.22;;;;;;;19.01;56.65;101793.03;5031617;28;20097;-63
2021/03/31 09:47:02;;;;;;;8.20;3.30;;;;;;;19.00;56.92;101796.69;5031515;28;20126;-63
2021/03/31 09:49:27;;;;;;;5.43;2.97;;;;;;;18.99;56.52;101801.19;5049969;28;20025;-63
2021/03/31 09:51:53;;;;;;;5.32;3.00;;;;;;;19.00;56.52;101794.03;5049657;28;20372;-63
2021/03/31 09:54:24;;;;;;;6.30;3.15;;;;;;;18.99;56.76;101797.69;5031299;28;20047;-64
2021/03/31 09:56:50;;;;;;;8.40;3.28;;;;;;;18.99;56.27;101797.69;5050614;28;20166;-64
2021/03/31 09:59:16;;;;;;;6.45;2.90;;;;;;;18.97;56.47;101789.06;5048789;28;20123;-63
2021/03/31 10:01:42;;;;;;;6.95;3.30;;;;;;;18.97;56.17;101787.22;5031992;28;20040;-64
2021/03/31 10:04:07;;;;;;;7.65;3.15;;;;;;;18.96;56.24;101788.25;5031609;28;20261;-64
2021/03/31 10:06:33;;;;;;;5.75;2.97;;;;;;;18.95;56.24;101789.25;5049577;28;20527;-64
2021/03/31 10:08:59;;;;;;;6.45;3.00;;;;;;;18.93;56.27;101783.22;5012930;28;20045;-63
2021/03/31 10:11:34;;;;;;;5.03;2.90;;;;;;;18.91;56.13;101787.88;5030988;28;20086;-63
2021/03/31 10:14:01;;;;;;;6.18;2.88;;;;;;;18.93;56.22;101783.22;5034680;28;20475;-63
2021/03/31 10:16:36;;;;;;;7.53;2.75;;;;;;;18.93;56.20;101788.56;5042782;28;20033;-64
2021/03/31 10:19:04;;;;;;;4.78;2.80;;;;;;;18.95;55.92;101777.78;5031906;28;20053;-63
2021/03/31 10:21:34;;;;;;;6.13;3.00;;;;;;;18.94;56.19;101781.44;5034386;28;20437;-64
2021/03/31 10:24:02;;;;;;;6.20;2.95;;;;;;;18.95;55.77;101775.94;5040544;28;20384;-63
2021/03/31 10:26:30;;;;;;;6.07;2.40;;;;;;;18.95;56.22;101773.28;5041157;28;20029;-64
2021/03/31 10:29:20;;;;;;;6.47;2.60;;;;;;;18.93;55.89;101769.94;5041546;28;20033;-64
2021/03/31 10:31:47;;;;;;;6.57;2.78;;;;;;;18.95;56.17;101767.13;5049431;28;20668;-63
2021/03/31 10:34:14;;;;;;;5.07;2.60;;;;;;;18.97;55.97;101776.59;5022666;28;20064;-63
2021/03/31 10:50:21;;;;;;;3.30;2.05;;;;;;;18.99;55.57;101776.44;5026891;28;20112;-64
2021/03/31 10:52:50;;;;;;;6.68;2.20;;;;;;;18.99;55.65;101771.94;5025962;28;20028;-64
2021/03/31 10:55:15;;;;;;;8.35;3.10;;;;;;;18.99;56.16;101773.78;5047926;28;20059;-63
2021/03/31 10:57:41;;;;;;;6.85;3.72;;;;;;;18.99;56.00;101771.09;5035991;28;20472;-64
2021/03/31 11:00:07;;;;;;;7.93;4.07;;;;;;;18.98;55.97;101778.25;5031928;28;20074;-64
2021/03/31 11:02:33;;;;;;;8.95;5.03;;;;;;;18.96;55.99;101772.28;5047716;28;20040;-63
2021/03/31 11:04:58;;;;;;;6.80;4.28;;;;;;;18.95;55.75;101765.31;5048866;28;20833;-64
2021/03/31 11:07:24;;;;;;;8.05;4.57;;;;;;;18.94;55.52;101768.97;5028725;28;20464;-65
2021/03/31 11:09:49;;;;;;;10.65;5.28;;;;;;;18.96;55.81;101768.78;5048544;28;20456;-64
2021/03/31 11:12:15;;;;;;;8.10;4.68;;;;;;;18.95;55.29;101762.66;5029270;28;20025;-63
2021/03/31 11:14:41;;;;;;;8.45;5.22;;;;;;;18.95;55.54;101764.47;5030825;28;20021;-63
2021/03/31 11:17:15;;;;;;;8.38;4.30;;;;;;;18.93;55.34;101769.94;5014469;28;20041;-63
2021/03/31 11:27:16;;;;;;;8.30;4.82;;;;;;;18.92;55.51;101764.78;5045731;28;20044;-64
2021/03/31 11:29:42;;;;;;;10.50;4.75;;;;;;;18.92;55.56;101770.94;5036920;28;20423;-63
2021/03/31 11:32:08;;;;;;;10.13;5.28;;;;;;;18.93;55.38;101782.41;5017255;28;20055;-65
2021/03/31 11:34:33;;;;;;;9.15;5.25;;;;;;;18.91;55.07;101785.22;5030222;28;20033;-64
2021/03/31 11:36:59;;;;;;;9.85;4.82;;;;;;;18.91;55.16;101763.97;5047133;28;20501;-64
2021/03/31 11:39:24;;;;;;;10.63;4.75;;;;;;;18.90;54.95;101770.28;5029306;28;20053;-64
2021/03/31 11:41:50;;;;;;;8.98;4.82;;;;;;;18.90;55.13;101767.63;5016336;28;20457;-64
2021/03/31 11:44:15;;;;;;;8.35;5.18;;;;;;;18.91;55.21;101769.28;5019122;28;20025;-64
2021/03/31 11:46:41;;;;;;;9.18;5.20;;;;;;;18.90;55.09;101759.66;5048104;28;20043;-64
2021/03/31 11:49:06;;;;;;;9.05;4.57;;;;;;;18.90;55.21;101766.78;5047327;28;20120;-64
2021/03/31 11:51:32;;;;;;;7.07;4.78;;;;;;;18.89;54.84;101765.97;5047427;28;20037;-64
2021/03/31 11:53:57;;;;;;;9.85;5.53;;;;;;;18.89;55.11;101763.31;5047919;28;20488;-64
2021/03/31 11:56:23;;;;;;;9.82;4.82;;;;;;;18.88;54.88;101763.47;5028778;28;20068;-64